sensor_id;sensor_type;location;lat;lon;timestamp;P1;durP1;ratioP1;P2;durP2;ratioP2
81807;SDS011;71241;13.676;100.700;2023-08-21T00:01:53;12.15;;;10.57;;
81807;SDS011;71241;13.676;100.700;2023-08-21T00:04:25;23.38;;;21.38;;
81807;SDS011;71241;13.676;100.700;2023-08-21T00:06:55;12.38;;;10.88;;
81807;SDS011;71241;13.676;100.700;2023-08-21T00:09:26;14.95;;;10.43;;
81807;SDS011;71241;13.676;100.700;2023-08-21T00:11:56;14.88;;;12.02;;
81807;SDS011;71241;13.676;100.700;2023-08-21T00:14:26;13.43;;;12.13;;
81807;SDS011;71241;13.676;100.700;2023-08-21T00:16:59;12.75;;;11.45;;
81807;SDS011;71241;13.676;100.700;2023-08-21T00:19:33;13.02;;;10.07;;
81807;SDS011;71241;13.676;100.700;2023-08-21T00:22:04;14.10;;;10.50;;
81807;SDS011;71241;13.676;100.700;2023-08-21T00:24:34;12.05;;;10.45;;
81807;SDS011;71241;13.676;100.700;2023-08-21T00:27:05;15.98;;;12.55;;
81807;SDS011;71241;13.676;100.700;2023-08-21T00:29:35;15.35;;;12.98;;
81807;SDS011;71241;13.676;100.700;2023-08-21T00:32:06;13.60;;;11.35;;
81807;SDS011;71241;13.676;100.700;2023-08-21T00:34:39;15.60;;;12.10;;
81807;SDS011;71241;13.676;100.700;2023-08-21T00:37:10;14.23;;;10.77;;
81807;SDS011;71241;13.676;100.700;2023-08-21T00:39:40;19.33;;;13.38;;
81807;SDS011;71241;13.676;100.700;2023-08-21T00:42:11;18.58;;;13.43;;
81807;SDS011;71241;13.676;100.700;2023-08-21T00:47:27;18.88;;;13.43;;
81807;SDS011;71241;13.676;100.700;2023-08-21T00:49:59;16.92;;;12.75;;
81807;SDS011;71241;13.676;100.700;2023-08-21T00:52:30;15.98;;;12.38;;
81807;SDS011;71241;13.676;100.700;2023-08-21T00:55:01;17.33;;;13.57;;
81807;SDS011;71241;13.676;100.700;2023-08-21T00:57:32;19.00;;;15.10;;
81807;SDS011;71241;13.676;100.700;2023-08-21T01:00:02;22.50;;;15.15;;
81807;SDS011;71241;13.676;100.700;2023-08-21T01:02:34;19.50;;;15.48;;
81807;SDS011;71241;13.676;100.700;2023-08-21T01:05:07;21.88;;;13.02;;
81807;SDS011;71241;13.676;100.700;2023-08-21T01:07:40;31.17;;;28.35;;
81807;SDS011;71241;13.676;100.700;2023-08-21T01:10:15;18.10;;;15.95;;
81807;SDS011;71241;13.676;100.700;2023-08-21T01:12:52;21.55;;;17.38;;
81807;SDS011;71241;13.676;100.700;2023-08-21T01:15:26;21.85;;;14.30;;
81807;SDS011;71241;13.676;100.700;2023-08-21T01:17:57;21.52;;;14.32;;
81807;SDS011;71241;13.676;100.700;2023-08-21T01:20:29;17.80;;;12.50;;
81807;SDS011;71241;13.676;100.700;2023-08-21T01:23:03;15.82;;;11.13;;
81807;SDS011;71241;13.676;100.700;2023-08-21T01:25:39;20.05;;;13.32;;
81807;SDS011;71241;13.676;100.700;2023-08-21T01:28:09;19.20;;;13.93;;
81807;SDS011;71241;13.676;100.700;2023-08-21T01:30:40;22.33;;;14.30;;
81807;SDS011;71241;13.676;100.700;2023-08-21T01:33:11;19.05;;;15.02;;
81807;SDS011;71241;13.676;100.700;2023-08-21T01:35:43;19.00;;;17.08;;
81807;SDS011;71241;13.676;100.700;2023-08-21T01:38:15;17.75;;;13.10;;
81807;SDS011;71241;13.676;100.700;2023-08-21T01:40:48;16.63;;;13.85;;
81807;SDS011;71241;13.676;100.700;2023-08-21T01:43:20;17.55;;;15.70;;
81807;SDS011;71241;13.676;100.700;2023-08-21T01:45:50;18.83;;;15.68;;
81807;SDS011;71241;13.676;100.700;2023-08-21T01:48:21;29.88;;;27.17;;
81807;SDS011;71241;13.676;100.700;2023-08-21T01:50:51;16.00;;;11.77;;
81807;SDS011;71241;13.676;100.700;2023-08-21T01:53:22;20.20;;;13.23;;
81807;SDS011;71241;13.676;100.700;2023-08-21T01:55:54;22.80;;;13.00;;
81807;SDS011;71241;13.676;100.700;2023-08-21T01:58:25;18.63;;;12.10;;
81807;SDS011;71241;13.676;100.700;2023-08-21T02:00:55;17.60;;;12.48;;
81807;SDS011;71241;13.676;100.700;2023-08-21T02:03:26;23.20;;;13.18;;
81807;SDS011;71241;13.676;100.700;2023-08-21T02:05:57;40.80;;;19.02;;
81807;SDS011;71241;13.676;100.700;2023-08-21T02:08:31;22.75;;;16.55;;
81807;SDS011;71241;13.676;100.700;2023-08-21T02:11:03;15.43;;;13.07;;
81807;SDS011;71241;13.676;100.700;2023-08-21T02:13:34;16.08;;;11.60;;
81807;SDS011;71241;13.676;100.700;2023-08-21T02:16:04;15.38;;;12.27;;
81807;SDS011;71241;13.676;100.700;2023-08-21T02:18:35;16.40;;;13.02;;
81807;SDS011;71241;13.676;100.700;2023-08-21T02:21:06;19.92;;;16.17;;
81807;SDS011;71241;13.676;100.700;2023-08-21T02:23:36;28.00;;;25.27;;
81807;SDS011;71241;13.676;100.700;2023-08-21T02:26:08;26.10;;;23.50;;
81807;SDS011;71241;13.676;100.700;2023-08-21T02:28:39;16.48;;;11.60;;
81807;SDS011;71241;13.676;100.700;2023-08-21T02:31:12;18.90;;;12.73;;
81807;SDS011;71241;13.676;100.700;2023-08-21T02:33:43;15.73;;;9.90;;
81807;SDS011;71241;13.676;100.700;2023-08-21T02:36:13;14.70;;;9.25;;
81807;SDS011;71241;13.676;100.700;2023-08-21T02:38:44;22.27;;;14.38;;
81807;SDS011;71241;13.676;100.700;2023-08-21T02:41:16;18.50;;;12.50;;
81807;SDS011;71241;13.676;100.700;2023-08-21T02:43:48;20.25;;;17.02;;
81807;SDS011;71241;13.676;100.700;2023-08-21T02:48:52;15.30;;;9.52;;
81807;SDS011;71241;13.676;100.700;2023-08-21T02:51:23;16.23;;;10.32;;
81807;SDS011;71241;13.676;100.700;2023-08-21T02:53:53;13.27;;;8.93;;
81807;SDS011;71241;13.676;100.700;2023-08-21T02:56:25;17.58;;;11.00;;
81807;SDS011;71241;13.676;100.700;2023-08-21T02:58:56;15.13;;;9.05;;
81807;SDS011;71241;13.676;100.700;2023-08-21T03:01:26;17.80;;;10.32;;
81807;SDS011;71241;13.676;100.700;2023-08-21T03:03:57;15.50;;;9.48;;
81807;SDS011;71241;13.676;100.700;2023-08-21T03:06:27;14.35;;;9.32;;
81807;SDS011;71241;13.676;100.700;2023-08-21T03:08:58;11.20;;;7.55;;
81807;SDS011;71241;13.676;100.700;2023-08-21T03:11:30;10.38;;;9.45;;
81807;SDS011;71241;13.676;100.700;2023-08-21T03:14:00;12.18;;;8.73;;
81807;SDS011;71241;13.676;100.700;2023-08-21T03:16:34;13.23;;;9.98;;
81807;SDS011;71241;13.676;100.700;2023-08-21T03:19:04;14.82;;;10.65;;
81807;SDS011;71241;13.676;100.700;2023-08-21T03:21:36;15.98;;;10.88;;
81807;SDS011;71241;13.676;100.700;2023-08-21T03:24:06;11.80;;;7.43;;
81807;SDS011;71241;13.676;100.700;2023-08-21T03:26:41;14.93;;;9.05;;
81807;SDS011;71241;13.676;100.700;2023-08-21T03:29:11;12.68;;;8.18;;
81807;SDS011;71241;13.676;100.700;2023-08-21T03:31:42;11.43;;;8.27;;
81807;SDS011;71241;13.676;100.700;2023-08-21T03:34:14;12.48;;;9.23;;
81807;SDS011;71241;13.676;100.700;2023-08-21T03:36:45;13.73;;;8.43;;
81807;SDS011;71241;13.676;100.700;2023-08-21T03:39:15;13.95;;;8.13;;
81807;SDS011;71241;13.676;100.700;2023-08-21T03:41:48;11.57;;;9.48;;
81807;SDS011;71241;13.676;100.700;2023-08-21T03:44:21;12.65;;;9.10;;
81807;SDS011;71241;13.676;100.700;2023-08-21T03:46:54;12.88;;;11.50;;
81807;SDS011;71241;13.676;100.700;2023-08-21T03:49:25;15.05;;;11.73;;
81807;SDS011;71241;13.676;100.700;2023-08-21T03:51:56;11.70;;;10.48;;
81807;SDS011;71241;13.676;100.700;2023-08-21T03:54:26;10.57;;;9.52;;
81807;SDS011;71241;13.676;100.700;2023-08-21T03:56:59;8.40;;;7.00;;
81807;SDS011;71241;13.676;100.700;2023-08-21T04:01:59;7.22;;;6.43;;
81807;SDS011;71241;13.676;100.700;2023-08-21T04:04:30;8.73;;;7.18;;
81807;SDS011;71241;13.676;100.700;2023-08-21T04:07:00;8.82;;;6.57;;
81807;SDS011;71241;13.676;100.700;2023-08-21T04:09:31;13.55;;;6.65;;
81807;SDS011;71241;13.676;100.700;2023-08-21T04:12:04;8.85;;;6.60;;
81807;SDS011;71241;13.676;100.700;2023-08-21T04:14:34;16.83;;;15.40;;
81807;SDS011;71241;13.676;100.700;2023-08-21T04:17:20;17.42;;;16.52;;
81807;SDS011;71241;13.676;100.700;2023-08-21T04:19:51;15.73;;;14.48;;
81807;SDS011;71241;13.676;100.700;2023-08-21T04:22:22;10.55;;;8.18;;
81807;SDS011;71241;13.676;100.700;2023-08-21T04:24:55;7.03;;;6.07;;
81807;SDS011;71241;13.676;100.700;2023-08-21T04:27:27;7.80;;;6.70;;
81807;SDS011;71241;13.676;100.700;2023-08-21T04:29:58;5.50;;;4.35;;
81807;SDS011;71241;13.676;100.700;2023-08-21T04:32:28;8.25;;;4.50;;
81807;SDS011;71241;13.676;100.700;2023-08-21T04:34:59;8.75;;;5.68;;
81807;SDS011;71241;13.676;100.700;2023-08-21T04:37:32;7.60;;;5.50;;
81807;SDS011;71241;13.676;100.700;2023-08-21T04:40:03;6.97;;;6.32;;
81807;SDS011;71241;13.676;100.700;2023-08-21T04:42:36;4.63;;;4.07;;
81807;SDS011;71241;13.676;100.700;2023-08-21T04:45:07;5.35;;;4.10;;
81807;SDS011;71241;13.676;100.700;2023-08-21T04:47:38;5.80;;;4.30;;
81807;SDS011;71241;13.676;100.700;2023-08-21T04:50:09;13.52;;;12.38;;
81807;SDS011;71241;13.676;100.700;2023-08-21T04:52:41;12.85;;;7.45;;
81807;SDS011;71241;13.676;100.700;2023-08-21T04:55:11;7.30;;;5.80;;
81807;SDS011;71241;13.676;100.700;2023-08-21T04:57:44;7.82;;;4.47;;
81807;SDS011;71241;13.676;100.700;2023-08-21T05:00:15;6.57;;;4.68;;
81807;SDS011;71241;13.676;100.700;2023-08-21T05:02:46;6.50;;;3.97;;
81807;SDS011;71241;13.676;100.700;2023-08-21T05:05:16;5.03;;;4.30;;
81807;SDS011;71241;13.676;100.700;2023-08-21T05:07:47;4.43;;;4.00;;
81807;SDS011;71241;13.676;100.700;2023-08-21T05:10:20;5.40;;;3.53;;
81807;SDS011;71241;13.676;100.700;2023-08-21T05:12:53;5.70;;;3.72;;
81807;SDS011;71241;13.676;100.700;2023-08-21T05:15:26;7.93;;;7.22;;
81807;SDS011;71241;13.676;100.700;2023-08-21T05:17:56;5.07;;;4.00;;
81807;SDS011;71241;13.676;100.700;2023-08-21T05:20:27;4.63;;;4.07;;
81807;SDS011;71241;13.676;100.700;2023-08-21T05:22:57;4.50;;;4.10;;
81807;SDS011;71241;13.676;100.700;2023-08-21T05:25:28;11.68;;;10.38;;
81807;SDS011;71241;13.676;100.700;2023-08-21T05:30:35;5.40;;;3.90;;
81807;SDS011;71241;13.676;100.700;2023-08-21T05:33:06;4.15;;;3.20;;
81807;SDS011;71241;13.676;100.700;2023-08-21T05:35:37;4.07;;;3.72;;
81807;SDS011;71241;13.676;100.700;2023-08-21T05:38:07;4.50;;;4.10;;
81807;SDS011;71241;13.676;100.700;2023-08-21T05:40:38;5.78;;;4.18;;
81807;SDS011;71241;13.676;100.700;2023-08-21T05:43:13;6.57;;;3.85;;
81807;SDS011;71241;13.676;100.700;2023-08-21T05:45:43;6.07;;;4.47;;
81807;SDS011;71241;13.676;100.700;2023-08-21T05:48:14;7.32;;;4.40;;
81807;SDS011;71241;13.676;100.700;2023-08-21T05:50:50;4.45;;;4.05;;
81807;SDS011;71241;13.676;100.700;2023-08-21T05:53:21;6.95;;;5.10;;
81807;SDS011;71241;13.676;100.700;2023-08-21T05:55:52;5.97;;;4.40;;
81807;SDS011;71241;13.676;100.700;2023-08-21T05:58:24;4.30;;;3.90;;
81807;SDS011;71241;13.676;100.700;2023-08-21T06:00:59;5.18;;;4.75;;
81807;SDS011;71241;13.676;100.700;2023-08-21T06:03:29;5.15;;;4.63;;
81807;SDS011;71241;13.676;100.700;2023-08-21T06:06:00;5.28;;;4.43;;
81807;SDS011;71241;13.676;100.700;2023-08-21T06:08:30;4.35;;;4.03;;
81807;SDS011;71241;13.676;100.700;2023-08-21T06:11:01;4.53;;;3.78;;
81807;SDS011;71241;13.676;100.700;2023-08-21T06:13:36;4.63;;;4.22;;
81807;SDS011;71241;13.676;100.700;2023-08-21T06:16:06;6.97;;;4.38;;
81807;SDS011;71241;13.676;100.700;2023-08-21T06:18:37;4.47;;;4.18;;
81807;SDS011;71241;13.676;100.700;2023-08-21T06:21:08;4.13;;;3.30;;
81807;SDS011;71241;13.676;100.700;2023-08-21T06:23:39;3.80;;;3.53;;
81807;SDS011;71241;13.676;100.700;2023-08-21T06:26:09;4.82;;;3.80;;
81807;SDS011;71241;13.676;100.700;2023-08-21T06:28:41;4.82;;;3.97;;
81807;SDS011;71241;13.676;100.700;2023-08-21T06:31:12;4.07;;;2.90;;
81807;SDS011;71241;13.676;100.700;2023-08-21T06:33:42;4.80;;;4.30;;
81807;SDS011;71241;13.676;100.700;2023-08-21T06:36:13;4.25;;;3.20;;
81807;SDS011;71241;13.676;100.700;2023-08-21T06:38:46;4.10;;;3.40;;
81807;SDS011;71241;13.676;100.700;2023-08-21T06:41:17;6.38;;;3.15;;
81807;SDS011;71241;13.676;100.700;2023-08-21T06:43:50;5.78;;;3.72;;
81807;SDS011;71241;13.676;100.700;2023-08-21T06:46:21;4.18;;;3.78;;
81807;SDS011;71241;13.676;100.700;2023-08-21T06:48:51;4.15;;;3.78;;
81807;SDS011;71241;13.676;100.700;2023-08-21T06:51:22;4.07;;;3.65;;
81807;SDS011;71241;13.676;100.700;2023-08-21T06:53:54;4.88;;;3.28;;
81807;SDS011;71241;13.676;100.700;2023-08-21T06:56:25;3.58;;;3.35;;
81807;SDS011;71241;13.676;100.700;2023-08-21T06:58:57;3.80;;;3.50;;
81807;SDS011;71241;13.676;100.700;2023-08-21T07:03:58;3.95;;;3.45;;
81807;SDS011;71241;13.676;100.700;2023-08-21T07:06:29;4.18;;;3.78;;
81807;SDS011;71241;13.676;100.700;2023-08-21T07:09:00;3.97;;;3.47;;
81807;SDS011;71241;13.676;100.700;2023-08-21T07:11:31;5.78;;;3.40;;
81807;SDS011;71241;13.676;100.700;2023-08-21T07:14:03;5.03;;;4.68;;
81807;SDS011;71241;13.676;100.700;2023-08-21T07:16:34;5.38;;;4.05;;
81807;SDS011;71241;13.676;100.700;2023-08-21T07:19:04;4.65;;;3.80;;
81807;SDS011;71241;13.676;100.700;2023-08-21T07:21:35;7.07;;;3.50;;
81807;SDS011;71241;13.676;100.700;2023-08-21T07:24:07;4.43;;;3.83;;
81807;SDS011;71241;13.676;100.700;2023-08-21T07:26:38;4.53;;;3.08;;
81807;SDS011;71241;13.676;100.700;2023-08-21T07:29:10;3.92;;;2.88;;
81807;SDS011;71241;13.676;100.700;2023-08-21T07:31:40;3.58;;;2.42;;
81807;SDS011;71241;13.676;100.700;2023-08-21T07:34:11;5.32;;;2.58;;
81807;SDS011;71241;13.676;100.700;2023-08-21T07:36:42;2.75;;;2.55;;
81807;SDS011;71241;13.676;100.700;2023-08-21T07:39:12;4.43;;;2.58;;
81807;SDS011;71241;13.676;100.700;2023-08-21T07:41:46;3.95;;;3.03;;
81807;SDS011;71241;13.676;100.700;2023-08-21T07:44:19;4.03;;;3.40;;
81807;SDS011;71241;13.676;100.700;2023-08-21T07:46:49;3.90;;;3.53;;
81807;SDS011;71241;13.676;100.700;2023-08-21T07:49:20;4.32;;;3.92;;
81807;SDS011;71241;13.676;100.700;2023-08-21T07:51:51;6.97;;;3.80;;
81807;SDS011;71241;13.676;100.700;2023-08-21T07:54:21;6.10;;;3.88;;
81807;SDS011;71241;13.676;100.700;2023-08-21T07:56:53;4.40;;;4.07;;
81807;SDS011;71241;13.676;100.700;2023-08-21T07:59:25;5.25;;;3.25;;
81807;SDS011;71241;13.676;100.700;2023-08-21T08:01:56;3.55;;;3.25;;
81807;SDS011;71241;13.676;100.700;2023-08-21T08:04:26;5.50;;;3.88;;
81807;SDS011;71241;13.676;100.700;2023-08-21T08:06:57;9.82;;;3.70;;
81807;SDS011;71241;13.676;100.700;2023-08-21T08:09:27;6.93;;;4.13;;
81807;SDS011;71241;13.676;100.700;2023-08-21T08:11:58;5.68;;;3.60;;
81807;SDS011;71241;13.676;100.700;2023-08-21T08:14:30;5.40;;;3.65;;
81807;SDS011;71241;13.676;100.700;2023-08-21T08:17:01;5.07;;;3.70;;
81807;SDS011;71241;13.676;100.700;2023-08-21T08:19:32;5.30;;;4.10;;
81807;SDS011;71241;13.676;100.700;2023-08-21T08:22:03;5.03;;;3.53;;
81807;SDS011;71241;13.676;100.700;2023-08-21T08:24:33;4.82;;;4.32;;
81807;SDS011;71241;13.676;100.700;2023-08-21T08:27:04;4.40;;;3.53;;
81807;SDS011;71241;13.676;100.700;2023-08-21T08:29:37;3.78;;;2.70;;
81807;SDS011;71241;13.676;100.700;2023-08-21T08:32:08;5.00;;;3.28;;
81807;SDS011;71241;13.676;100.700;2023-08-21T08:34:39;5.95;;;3.88;;
81807;SDS011;71241;13.676;100.700;2023-08-21T08:37:09;4.45;;;2.97;;
81807;SDS011;71241;13.676;100.700;2023-08-21T08:39:40;5.75;;;3.63;;
81807;SDS011;71241;13.676;100.700;2023-08-21T08:42:10;5.03;;;3.08;;
81807;SDS011;71241;13.676;100.700;2023-08-21T08:44:43;4.53;;;2.85;;
81807;SDS011;71241;13.676;100.700;2023-08-21T08:47:14;3.22;;;2.67;;
81807;SDS011;71241;13.676;100.700;2023-08-21T08:49:46;9.02;;;3.65;;
81807;SDS011;71241;13.676;100.700;2023-08-21T08:52:17;3.90;;;3.00;;
81807;SDS011;71241;13.676;100.700;2023-08-21T08:54:49;7.53;;;2.90;;
81807;SDS011;71241;13.676;100.700;2023-08-21T08:57:19;3.25;;;2.97;;
81807;SDS011;71241;13.676;100.700;2023-08-21T08:59:54;3.75;;;2.47;;
81807;SDS011;71241;13.676;100.700;2023-08-21T09:02:24;4.65;;;2.65;;
81807;SDS011;71241;13.676;100.700;2023-08-21T09:04:55;5.85;;;2.97;;
81807;SDS011;71241;13.676;100.700;2023-08-21T09:07:26;3.60;;;2.35;;
81807;SDS011;71241;13.676;100.700;2023-08-21T09:09:57;12.10;;;11.10;;
81807;SDS011;71241;13.676;100.700;2023-08-21T09:12:31;10.05;;;8.95;;
81807;SDS011;71241;13.676;100.700;2023-08-21T09:15:04;7.88;;;4.82;;
81807;SDS011;71241;13.676;100.700;2023-08-21T09:17:37;3.65;;;2.28;;
81807;SDS011;71241;13.676;100.700;2023-08-21T09:20:08;3.47;;;1.92;;
81807;SDS011;71241;13.676;100.700;2023-08-21T09:22:40;3.33;;;2.35;;
81807;SDS011;71241;13.676;100.700;2023-08-21T09:25:11;2.58;;;1.83;;
81807;SDS011;71241;13.676;100.700;2023-08-21T09:27:42;4.55;;;2.10;;
81807;SDS011;71241;13.676;100.700;2023-08-21T09:30:15;7.53;;;2.08;;
81807;SDS011;71241;13.676;100.700;2023-08-21T09:32:55;7.70;;;2.47;;
81807;SDS011;71241;13.676;100.700;2023-08-21T09:35:26;4.25;;;2.38;;
81807;SDS011;71241;13.676;100.700;2023-08-21T09:37:56;3.38;;;2.42;;
81807;SDS011;71241;13.676;100.700;2023-08-21T09:40:27;4.95;;;2.15;;
81807;SDS011;71241;13.676;100.700;2023-08-21T09:42:58;4.68;;;2.25;;
81807;SDS011;71241;13.676;100.700;2023-08-21T09:45:31;4.57;;;1.92;;
81807;SDS011;71241;13.676;100.700;2023-08-21T09:48:04;3.33;;;1.65;;
81807;SDS011;71241;13.676;100.700;2023-08-21T09:50:35;3.67;;;1.65;;
81807;SDS011;71241;13.676;100.700;2023-08-21T09:53:07;2.55;;;1.88;;
81807;SDS011;71241;13.676;100.700;2023-08-21T09:55:37;6.53;;;1.77;;
81807;SDS011;71241;13.676;100.700;2023-08-21T09:58:08;4.25;;;2.08;;
81807;SDS011;71241;13.676;100.700;2023-08-21T10:00:41;5.22;;;3.55;;
81807;SDS011;71241;13.676;100.700;2023-08-21T10:03:12;3.45;;;1.92;;
81807;SDS011;71241;13.676;100.700;2023-08-21T10:05:45;2.03;;;1.42;;
81807;SDS011;71241;13.676;100.700;2023-08-21T10:08:18;2.80;;;1.60;;
81807;SDS011;71241;13.676;100.700;2023-08-21T10:10:50;4.55;;;1.83;;
81807;SDS011;71241;13.676;100.700;2023-08-21T10:13:21;3.30;;;2.00;;
81807;SDS011;71241;13.676;100.700;2023-08-21T10:15:54;3.53;;;1.95;;
81807;SDS011;71241;13.676;100.700;2023-08-21T10:18:24;3.15;;;2.90;;
81807;SDS011;71241;13.676;100.700;2023-08-21T10:21:10;4.25;;;1.95;;
81807;SDS011;71241;13.676;100.700;2023-08-21T10:23:41;4.97;;;3.33;;
81807;SDS011;71241;13.676;100.700;2023-08-21T10:26:13;5.38;;;4.95;;
81807;SDS011;71241;13.676;100.700;2023-08-21T10:28:48;7.63;;;4.47;;
81807;SDS011;71241;13.676;100.700;2023-08-21T10:31:28;4.95;;;4.20;;
81807;SDS011;71241;13.676;100.700;2023-08-21T10:34:03;2.45;;;2.22;;
81807;SDS011;71241;13.676;100.700;2023-08-21T10:39:39;3.00;;;2.78;;
81807;SDS011;71241;13.676;100.700;2023-08-21T10:42:36;4.18;;;3.03;;
81807;SDS011;71241;13.676;100.700;2023-08-21T10:45:12;2.55;;;2.35;;
81807;SDS011;71241;13.676;100.700;2023-08-21T10:47:45;4.45;;;2.95;;
81807;SDS011;71241;13.676;100.700;2023-08-21T10:50:17;4.38;;;2.55;;
81807;SDS011;71241;13.676;100.700;2023-08-21T10:52:48;3.75;;;2.30;;
81807;SDS011;71241;13.676;100.700;2023-08-21T10:55:21;2.97;;;1.77;;
81807;SDS011;71241;13.676;100.700;2023-08-21T10:57:52;2.70;;;2.25;;
81807;SDS011;71241;13.676;100.700;2023-08-21T11:00:22;3.28;;;2.42;;
81807;SDS011;71241;13.676;100.700;2023-08-21T11:02:55;4.47;;;2.58;;
81807;SDS011;71241;13.676;100.700;2023-08-21T11:05:25;3.55;;;2.22;;
81807;SDS011;71241;13.676;100.700;2023-08-21T11:07:56;2.80;;;2.58;;
81807;SDS011;71241;13.676;100.700;2023-08-21T11:10:29;4.22;;;2.60;;
81807;SDS011;71241;13.676;100.700;2023-08-21T11:13:00;4.05;;;2.63;;
81807;SDS011;71241;13.676;100.700;2023-08-21T11:15:31;3.90;;;2.75;;
81807;SDS011;71241;13.676;100.700;2023-08-21T11:18:03;4.78;;;2.50;;
81807;SDS011;71241;13.676;100.700;2023-08-21T11:23:05;5.30;;;1.92;;
81807;SDS011;71241;13.676;100.700;2023-08-21T11:25:38;3.55;;;2.47;;
81807;SDS011;71241;13.676;100.700;2023-08-21T11:28:09;5.82;;;2.00;;
81807;SDS011;71241;13.676;100.700;2023-08-21T11:30:40;4.40;;;2.22;;
81807;SDS011;71241;13.676;100.700;2023-08-21T11:33:12;3.58;;;2.97;;
81807;SDS011;71241;13.676;100.700;2023-08-21T11:35:43;3.08;;;1.77;;
81807;SDS011;71241;13.676;100.700;2023-08-21T11:38:16;4.20;;;2.15;;
81807;SDS011;71241;13.676;100.700;2023-08-21T11:40:54;5.47;;;2.05;;
81807;SDS011;71241;13.676;100.700;2023-08-21T11:43:35;6.25;;;2.10;;
81807;SDS011;71241;13.676;100.700;2023-08-21T11:46:06;4.47;;;2.00;;
81807;SDS011;71241;13.676;100.700;2023-08-21T11:48:39;4.07;;;2.15;;
81807;SDS011;71241;13.676;100.700;2023-08-21T11:51:11;7.18;;;2.00;;
81807;SDS011;71241;13.676;100.700;2023-08-21T11:53:41;5.32;;;2.50;;
81807;SDS011;71241;13.676;100.700;2023-08-21T11:56:12;3.42;;;2.80;;
81807;SDS011;71241;13.676;100.700;2023-08-21T11:58:44;4.75;;;2.13;;
81807;SDS011;71241;13.676;100.700;2023-08-21T12:01:16;2.38;;;1.40;;
81807;SDS011;71241;13.676;100.700;2023-08-21T12:03:49;2.42;;;2.22;;
81807;SDS011;71241;13.676;100.700;2023-08-21T12:06:26;2.58;;;2.30;;
81807;SDS011;71241;13.676;100.700;2023-08-21T12:09:01;2.83;;;1.67;;
81807;SDS011;71241;13.676;100.700;2023-08-21T12:11:33;3.15;;;1.58;;
81807;SDS011;71241;13.676;100.700;2023-08-21T12:14:06;4.60;;;2.30;;
81807;SDS011;71241;13.676;100.700;2023-08-21T12:16:37;4.50;;;4.07;;
81807;SDS011;71241;13.676;100.700;2023-08-21T12:19:09;4.35;;;3.10;;
81807;SDS011;71241;13.676;100.700;2023-08-21T12:21:41;4.85;;;2.40;;
81807;SDS011;71241;13.676;100.700;2023-08-21T12:24:11;6.72;;;2.63;;
81807;SDS011;71241;13.676;100.700;2023-08-21T12:26:42;7.95;;;3.58;;
81807;SDS011;71241;13.676;100.700;2023-08-21T12:29:17;3.28;;;2.35;;
81807;SDS011;71241;13.676;100.700;2023-08-21T12:31:48;3.58;;;1.88;;
81807;SDS011;71241;13.676;100.700;2023-08-21T12:34:20;5.13;;;2.20;;
81807;SDS011;71241;13.676;100.700;2023-08-21T12:36:51;6.97;;;5.20;;
81807;SDS011;71241;13.676;100.700;2023-08-21T12:39:21;4.13;;;1.92;;
81807;SDS011;71241;13.676;100.700;2023-08-21T12:41:52;6.50;;;2.30;;
81807;SDS011;71241;13.676;100.700;2023-08-21T12:44:23;3.85;;;2.10;;
81807;SDS011;71241;13.676;100.700;2023-08-21T12:46:58;2.88;;;2.08;;
81807;SDS011;71241;13.676;100.700;2023-08-21T12:49:30;4.43;;;2.17;;
81807;SDS011;71241;13.676;100.700;2023-08-21T12:52:00;5.05;;;1.90;;
81807;SDS011;71241;13.676;100.700;2023-08-21T12:54:37;3.55;;;1.50;;
81807;SDS011;71241;13.676;100.700;2023-08-21T12:57:08;4.28;;;2.22;;
81807;SDS011;71241;13.676;100.700;2023-08-21T13:02:10;5.88;;;2.22;;
81807;SDS011;71241;13.676;100.700;2023-08-21T13:04:42;4.90;;;3.97;;
81807;SDS011;71241;13.676;100.700;2023-08-21T13:07:12;6.50;;;4.57;;
81807;SDS011;71241;13.676;100.700;2023-08-21T13:09:43;5.40;;;3.80;;
81807;SDS011;71241;13.676;100.700;2023-08-21T13:12:13;7.72;;;3.20;;
81807;SDS011;71241;13.676;100.700;2023-08-21T13:14:45;6.90;;;3.45;;
81807;SDS011;71241;13.676;100.700;2023-08-21T13:17:17;7.82;;;3.03;;
81807;SDS011;71241;13.676;100.700;2023-08-21T13:19:50;4.85;;;2.80;;
81807;SDS011;71241;13.676;100.700;2023-08-21T13:22:20;7.30;;;3.08;;
81807;SDS011;71241;13.676;100.700;2023-08-21T13:24:51;6.30;;;2.83;;
81807;SDS011;71241;13.676;100.700;2023-08-21T13:27:21;5.95;;;2.72;;
81807;SDS011;71241;13.676;100.700;2023-08-21T13:29:52;8.18;;;3.17;;
81807;SDS011;71241;13.676;100.700;2023-08-21T13:32:22;8.77;;;3.97;;
81807;SDS011;71241;13.676;100.700;2023-08-21T13:34:57;8.75;;;4.57;;
81807;SDS011;71241;13.676;100.700;2023-08-21T13:37:28;6.57;;;3.55;;
81807;SDS011;71241;13.676;100.700;2023-08-21T13:39:58;7.90;;;4.93;;
81807;SDS011;71241;13.676;100.700;2023-08-21T13:42:29;8.45;;;6.07;;
81807;SDS011;71241;13.676;100.700;2023-08-21T13:45:04;11.63;;;10.52;;
81807;SDS011;71241;13.676;100.700;2023-08-21T13:47:35;8.98;;;7.90;;
81807;SDS011;71241;13.676;100.700;2023-08-21T13:50:09;9.70;;;4.57;;
81807;SDS011;71241;13.676;100.700;2023-08-21T13:52:40;8.13;;;7.55;;
81807;SDS011;71241;13.676;100.700;2023-08-21T13:55:10;10.07;;;6.00;;
81807;SDS011;71241;13.676;100.700;2023-08-21T13:57:42;7.03;;;5.40;;
81807;SDS011;71241;13.676;100.700;2023-08-21T14:00:13;8.65;;;4.45;;
81807;SDS011;71241;13.676;100.700;2023-08-21T14:02:46;12.65;;;6.43;;
81807;SDS011;71241;13.676;100.700;2023-08-21T14:05:21;9.35;;;7.45;;
81807;SDS011;71241;13.676;100.700;2023-08-21T14:07:52;10.45;;;7.55;;
81807;SDS011;71241;13.676;100.700;2023-08-21T14:10:29;8.10;;;3.13;;
81807;SDS011;71241;13.676;100.700;2023-08-21T14:13:00;10.40;;;4.25;;
81807;SDS011;71241;13.676;100.700;2023-08-21T14:15:32;9.73;;;3.67;;
81807;SDS011;71241;13.676;100.700;2023-08-21T14:18:03;8.00;;;3.15;;
81807;SDS011;71241;13.676;100.700;2023-08-21T14:20:35;8.13;;;3.83;;
81807;SDS011;71241;13.676;100.700;2023-08-21T14:23:07;9.38;;;3.50;;
81807;SDS011;71241;13.676;100.700;2023-08-21T14:25:37;8.02;;;2.88;;
81807;SDS011;71241;13.676;100.700;2023-08-21T14:28:08;7.30;;;4.30;;
81807;SDS011;71241;13.676;100.700;2023-08-21T14:30:40;11.20;;;9.50;;
81807;SDS011;71241;13.676;100.700;2023-08-21T14:33:10;10.52;;;3.10;;
81807;SDS011;71241;13.676;100.700;2023-08-21T14:35:43;7.20;;;2.92;;
81807;SDS011;71241;13.676;100.700;2023-08-21T14:38:13;12.18;;;8.27;;
81807;SDS011;71241;13.676;100.700;2023-08-21T14:40:48;9.85;;;7.47;;
81807;SDS011;71241;13.676;100.700;2023-08-21T14:43:20;7.43;;;6.82;;
81807;SDS011;71241;13.676;100.700;2023-08-21T14:45:51;6.00;;;2.45;;
81807;SDS011;71241;13.676;100.700;2023-08-21T14:48:23;5.40;;;3.80;;
81807;SDS011;71241;13.676;100.700;2023-08-21T14:50:56;11.05;;;10.27;;
81807;SDS011;71241;13.676;100.700;2023-08-21T14:53:26;8.85;;;2.72;;
81807;SDS011;71241;13.676;100.700;2023-08-21T14:55:57;8.18;;;2.85;;
81807;SDS011;71241;13.676;100.700;2023-08-21T14:58:27;5.10;;;2.35;;
81807;SDS011;71241;13.676;100.700;2023-08-21T15:00:58;4.90;;;2.42;;